Time;durP1;ratioP1;P1;durP2;ratioP2;P2;SDS_P1;SDS_P2;PMS_P1;PMS_P2;Temp;Humidity;BMP_temperature;BMP_pressure;BME280_temperature;BME280_humidity;BME280_pressure;Samples;Min_cycle;Max_cycle;Signal;HPM_P1;HPM_P2
2022/05/27 00:01:21;;;;;;;;;1.00;1.00;;;;;19.79;45.98;102102.81;5057822;28;45887;-69
2022/05/27 00:03:48;;;;;;;;;1.00;1.00;;;;;19.79;46.13;102111.69;5056895;28;46251;-70
2022/05/27 00:06:14;;;;;;;;;1.00;1.00;;;;;19.78;46.05;102095.75;5056424;28;45439;-69
2022/05/27 00:08:40;;;;;;;;;1.00;1.00;;;;;19.76;46.17;102093.13;5056775;28;46131;-68
2022/05/27 00:11:07;;;;;;;;;1.67;1.00;;;;;19.45;46.07;102053.66;5057215;28;45242;-68
2022/05/27 00:13:33;;;;;;;;;3.33;1.00;;;;;19.48;46.30;102050.97;5057292;28;45535;-68
2022/05/27 00:15:59;;;;;;;;;1.00;1.00;;;;;19.56;46.21;102064.16;5052034;28;45530;-68
2022/05/27 00:18:25;;;;;;;;;1.00;1.00;;;;;19.64;46.44;102094.13;5046740;28;45412;-68
2022/05/27 00:20:51;;;;;;;;;2.00;0.00;;;;;19.64;46.24;102096.78;5036527;28;45438;-66
2022/05/27 00:23:20;;;;;;;;;2.00;2.00;;;;;19.32;46.41;102051.22;5036845;28;45520;-67
2022/05/27 00:25:46;;;;;;;;;2.00;1.00;;;;;19.62;46.34;102089.75;5040114;28;45546;-67
2022/05/27 00:28:12;;;;;;;;;0.00;0.00;;;;;19.41;45.97;102046.66;5041812;28;45235;-68
2022/05/27 00:30:38;;;;;;;;;3.00;1.00;;;;;19.13;46.33;101997.47;5040805;28;45385;-67
2022/05/27 00:33:05;;;;;;;;;0.33;0.33;;;;;19.56;46.29;102074.78;5039308;28;46037;-67
2022/05/27 00:35:31;;;;;;;;;1.67;1.67;;;;;19.34;46.27;102042.31;5040215;28;45346;-68
2022/05/27 00:37:57;;;;;;;;;0.67;0.67;;;;;19.06;46.67;101994.00;5041057;28;45456;-69
2022/05/27 00:40:25;;;;;;;;;1.00;1.00;;;;;19.48;46.76;102068.66;5041246;28;45889;-68
2022/05/27 00:42:52;;;;;;;;;0.67;0.67;;;;;19.33;46.73;102035.22;5042078;28;45556;-68
2022/05/27 00:45:23;;;;;;;;;1.00;1.00;;;;;19.49;46.82;102059.81;5043461;28;45381;-70
2022/05/27 00:47:52;;;;;;;;;1.00;1.00;;;;;19.35;46.70;102046.72;5044078;28;45510;-69
2022/05/27 00:50:23;;;;;;;;;1.00;1.00;;;;;19.46;46.88;102054.56;5041435;28;45281;-68
2022/05/27 00:52:48;;;;;;;;;0.33;0.33;;;;;19.44;46.87;102049.25;5039886;28;46704;-70
2022/05/27 00:55:22;;;;;;;;;2.00;0.00;;;;;19.22;47.08;102030.09;5040893;28;45284;-67
2022/05/27 00:58:02;;;;;;;;;1.33;1.00;;;;;19.39;47.17;102059.06;5042543;28;45387;-68
2022/05/27 01:00:29;;;;;;;;;1.67;0.33;;;;;18.98;47.13;101999.41;5041642;28;45490;-70
2022/05/27 01:02:56;;;;;;;;;0.00;0.00;;;;;18.88;47.19;101986.28;5040193;28;45437;-68
2022/05/27 01:05:24;;;;;;;;;0.33;0.33;;;;;19.28;47.25;102061.84;5021208;28;45441;-69
2022/05/27 01:07:56;;;;;;;;;0.00;0.00;;;;;19.22;47.46;102045.13;5039677;28;45446;-70
2022/05/27 01:10:26;;;;;;;;;0.00;0.00;;;;;18.91;47.68;102003.06;5039618;28;45455;-68
2022/05/27 01:13:19;;;;;;;;;2.00;2.00;;;;;19.24;47.68;102059.25;5039198;28;45453;-69
2022/05/27 01:16:09;;;;;;;;;1.00;1.00;;;;;19.24;47.70;102065.47;5039331;28;45461;-69
2022/05/27 01:22:11;;;;;;;;;1.33;1.00;;;;;19.18;47.87;102057.56;5039601;28;45270;-68
2022/05/27 01:25:12;;;;;;;;;1.00;1.00;;;;;19.14;48.06;102058.50;5039035;28;45510;-69
2022/05/27 01:27:43;;;;;;;;;1.00;1.00;;;;;18.92;48.40;102025.16;5039047;28;45229;-70
2022/05/27 01:30:18;;;;;;;;;1.00;1.00;;;;;19.02;48.46;102056.88;5039138;28;45419;-71
2022/05/27 01:33:04;;;;;;;;;1.00;1.00;;;;;19.01;48.83;102051.59;5039124;28;45416;-69
2022/05/27 01:35:58;;;;;;;;;1.00;1.00;;;;;19.01;48.62;102054.25;5038391;28;45355;-68
2022/05/27 01:39:15;;;;;;;;;3.00;1.00;;;;;18.94;49.00;102049.91;5038821;28;45287;-67
2022/05/27 01:42:04;;;;;;;;;1.00;1.00;;;;;18.68;48.86;102005.06;4977072;28;45412;-69
2022/05/27 01:44:42;;;;;;;;;1.00;1.00;;;;;18.80;48.81;102027.06;4977635;28;45478;-68
2022/05/27 01:47:15;;;;;;;;;1.00;1.00;;;;;18.84;48.94;102023.47;5011964;28;47584;-70
2022/05/27 01:49:49;;;;;;;;;0.00;0.00;;;;;18.91;48.92;102049.94;5038622;28;45305;-70
2022/05/27 01:52:28;;;;;;;;;3.33;1.00;;;;;18.88;49.04;102042.88;5038682;28;45321;-68
2022/05/27 01:55:01;;;;;;;;;2.00;1.00;;;;;18.87;48.86;102049.09;5038655;28;45473;-70
2022/05/27 01:57:37;;;;;;;;;1.00;1.00;;;;;18.86;49.28;102047.34;5038406;28;45606;-70
2022/05/27 02:00:12;;;;;;;;;1.33;1.00;;;;;18.85;49.03;102045.59;5038176;28;45426;-70
2022/05/27 02:02:44;;;;;;;;;1.00;1.00;;;;;18.62;48.97;102008.66;5038719;28;45584;-68
2022/05/27 02:05:25;;;;;;;;;2.00;1.00;;;;;18.19;48.74;101951.63;5039289;28;45562;-68
2022/05/27 02:07:59;;;;;;;;;1.00;1.00;;;;;18.75;48.72;102039.47;5038433;28;45494;-68
2022/05/27 02:10:34;;;;;;;;;1.00;1.00;;;;;18.76;48.67;102054.53;5038417;28;45344;-70
2022/05/27 02:13:16;;;;;;;;;2.00;2.00;;;;;18.62;48.75;102036.06;5038992;28;45389;-67
2022/05/27 02:15:45;;;;;;;;;2.00;2.00;;;;;18.71;48.85;102044.84;5039016;28;45423;-69
2022/05/27 02:18:14;;;;;;;;;3.00;3.00;;;;;18.71;48.85;102044.84;5038263;28;45544;-69
2022/05/27 02:20:50;;;;;;;;;2.33;2.33;;;;;18.70;48.82;102043.06;5038045;28;45640;-68
2022/05/27 02:23:59;;;;;;;;;2.67;1.33;;;;;18.70;48.91;102051.00;5020358;28;45497;-69
2022/05/27 02:26:31;;;;;;;;;4.00;2.00;;;;;18.72;48.89;102047.47;4937681;28;45586;-68
2022/05/27 02:29:01;;;;;;;;;1.00;1.00;;;;;18.73;48.88;102045.69;4937342;28;45496;-69
2022/05/27 02:31:32;;;;;;;;;1.00;1.00;;;;;18.74;48.71;102052.75;4990705;28;45611;-70
2022/05/27 02:37:05;;;;;;;;;1.00;1.00;;;;;18.76;48.73;102046.56;5038410;28;45331;-69
2022/05/27 02:39:35;;;;;;;;;1.00;1.00;;;;;18.52;48.87;102012.31;5037993;28;46360;-70
2022/05/27 02:42:19;;;;;;;;;3.00;2.00;;;;;18.68;49.15;102034.25;5019844;28;45425;-67
2022/05/27 02:45:08;;;;;;;;;2.00;0.00;;;;;18.63;48.88;102031.66;5053854;28;45453;-67
2022/05/27 02:47:48;;;;;;;;;2.00;2.00;;;;;18.71;48.93;102036.88;5057072;28;45279;-70
2022/05/27 02:50:40;;;;;;;;;2.00;1.33;;;;;18.75;48.81;102047.44;5057537;28;45773;-70
2022/05/27 02:53:24;;;;;;;;;2.33;1.33;;;;;18.74;49.07;102055.41;5039668;28;45401;-69
2022/05/27 02:56:10;;;;;;;;;3.00;2.00;;;;;18.73;49.01;102054.53;5057880;28;45366;-67
2022/05/27 02:58:36;;;;;;;;;1.00;1.00;;;;;18.56;49.24;102020.22;5058374;28;45544;-67
2022/05/27 03:01:02;;;;;;;;;1.00;1.00;;;;;18.64;49.17;102034.28;5057831;28;45809;-70
2022/05/27 03:03:28;;;;;;;;;1.33;1.33;;;;;18.65;49.30;102028.09;5057833;28;45385;-68
2022/05/27 03:06:10;;;;;;;;;1.00;1.00;;;;;18.67;49.44;102030.69;5057729;28;45244;-68
2022/05/27 03:09:02;;;;;;;;;1.33;1.33;;;;;18.73;49.68;102051.88;5057956;28;45498;-69
2022/05/27 03:11:52;;;;;;;;;2.33;1.33;;;;;18.70;49.43;102040.41;5057236;28;45435;-68
2022/05/27 03:14:44;;;;;;;;;3.00;1.33;;;;;18.65;49.77;102049.31;5057409;28;45429;-68
2022/05/27 03:17:10;;;;;;;;;1.00;1.00;;;;;18.23;49.52;101971.06;5039338;28;45509;-70
2022/05/27 03:19:53;;;;;;;;;2.00;2.00;;;;;18.56;50.00;102051.19;5057748;28;45405;-69
2022/05/27 03:22:47;;;;;;;;;2.67;2.00;;;;;18.55;49.82;102052.06;5057153;28;45448;-67
2022/05/27 03:25:24;;;;;;;;;2.00;2.00;;;;;18.51;50.06;102040.63;5057480;28;45307;-68
2022/05/27 03:28:25;;;;;;;;;2.00;2.00;;;;;18.21;50.13;101996.69;5057342;28;45441;-69
2022/05/27 03:31:06;;;;;;;;;3.00;3.00;;;;;18.49;50.05;102049.50;5023053;28;45443;-69
2022/05/27 03:33:52;;;;;;;;;2.00;2.00;;;;;18.46;49.96;102054.81;5037606;28;47670;-69
2022/05/27 03:36:21;;;;;;;;;1.67;1.67;;;;;18.47;49.83;102054.81;5037271;28;45850;-70
2022/05/27 03:39:22;;;;;;;;;3.00;2.00;;;;;18.47;49.76;102048.63;5056248;28;45396;-68
2022/05/27 03:41:54;;;;;;;;;4.67;2.00;;;;;18.47;49.73;102038.88;5056081;28;45240;-68
2022/05/27 03:44:26;;;;;;;;;2.00;2.00;;;;;18.15;49.78;101989.69;5053451;28;46147;-68
2022/05/27 03:46:54;;;;;;;;;3.00;1.00;;;;;18.44;49.82;102046.88;5056527;28;45741;-69
2022/05/27 03:49:20;;;;;;;;;1.67;1.67;;;;;18.41;49.70;102041.59;5056181;28;45523;-70
2022/05/27 03:51:54;;;;;;;;;2.00;1.00;;;;;18.29;49.99;102017.84;5039003;28;45628;-69
2022/05/27 03:54:21;;;;;;;;;3.00;2.00;;;;;18.39;49.99;102043.41;5056814;28;45339;-69
2022/05/27 03:56:47;;;;;;;;;26.00;21.33;;;;;18.41;49.98;102045.13;5038753;28;45378;-69
2022/05/27 03:59:15;;;;;;;;;10.33;8.00;;;;;18.20;49.82;102009.09;5056463;28;45332;-69
2022/05/27 04:01:44;;;;;;;;;7.33;5.00;;;;;18.05;49.67;101984.47;5057120;28;45796;-68
2022/05/27 04:04:15;;;;;;;;;4.33;4.33;;;;;18.47;49.90;102052.16;5056868;28;46236;-66
2022/05/27 04:06:41;;;;;;;;;6.00;6.00;;;;;18.47;50.13;102057.44;5056594;28;45444;-68
2022/05/27 04:09:09;;;;;;;;;4.00;4.00;;;;;18.49;49.85;102055.66;5056786;28;45564;-67
2022/05/27 04:11:38;;;;;;;;;6.33;3.67;;;;;18.33;49.65;102024.88;5056931;28;45276;-69
2022/05/27 04:14:04;;;;;;;;;4.33;3.33;;;;;18.26;49.71;102016.09;5056278;28;45696;-70
2022/05/27 04:16:30;;;;;;;;;8.67;6.33;;;;;18.48;49.96;102040.63;5056413;28;45468;-68
2022/05/27 04:18:55;;;;;;;;;4.00;4.00;;;;;18.49;49.82;102062.75;5056865;28;45765;-67
2022/05/27 04:21:23;;;;;;;;;5.33;4.67;;;;;18.30;49.82;102024.91;5057112;28;45197;-69
2022/05/27 04:23:49;;;;;;;;;4.67;3.67;;;;;18.42;49.98;102052.19;5056381;28;46765;-69
2022/05/27 04:26:15;;;;;;;;;5.33;3.33;;;;;18.50;50.02;102068.03;5056499;28;45404;-67
2022/05/27 04:28:41;;;;;;;;;3.33;3.33;;;;;18.49;50.01;102063.63;5056768;28;45378;-67
2022/05/27 04:31:07;;;;;;;;;4.00;4.00;;;;;18.27;49.98;102035.53;5057093;28;45556;-69
2022/05/27 04:33:34;;;;;;;;;5.00;3.00;;;;;18.35;50.28;102045.19;5056278;28;46130;-69
2022/05/27 04:36:01;;;;;;;;;3.33;3.00;;;;;18.50;49.92;102069.81;5056614;28;45377;-70
2022/05/27 04:38:28;;;;;;;;;4.33;4.00;;;;;18.52;50.03;102074.19;5056717;28;45441;-69
2022/05/27 04:40:54;;;;;;;;;6.00;5.00;;;;;17.89;50.31;101962.53;5036728;28;45423;-69
2022/05/27 04:43:20;;;;;;;;;5.67;5.00;;;;;18.43;50.44;102053.94;5036192;28;46615;-70
2022/05/27 04:45:49;;;;;;;;;7.00;6.33;;;;;18.43;50.37;102051.28;5036363;28;45464;-70
2022/05/27 04:48:17;;;;;;;;;5.33;5.33;;;;;18.52;50.18;102070.69;5053546;28;45679;-68
2022/05/27 04:50:43;;;;;;;;;6.33;5.00;;;;;18.29;50.38;102024.00;5056239;28;45540;-69
2022/05/27 04:53:10;;;;;;;;;7.00;4.33;;;;;18.52;50.27;102066.25;5056286;28;45599;-68
2022/05/27 04:55:38;;;;;;;;;6.33;5.00;;;;;18.55;50.31;102063.56;5055839;28;45592;-68
2022/05/27 04:58:04;;;;;;;;;6.33;6.00;;;;;18.42;50.30;102051.31;5056117;28;45534;-69
2022/05/27 05:00:36;;;;;;;;;6.33;6.33;;;;;18.52;50.69;102071.53;5042823;28;45352;-68
2022/05/27 05:03:02;;;;;;;;;6.67;5.33;;;;;18.35;50.10;102031.06;5035987;28;46571;-66
2022/05/27 05:05:30;;;;;;;;;6.00;6.00;;;;;18.33;50.44;102039.00;5035932;28;45675;-68
2022/05/27 05:08:01;;;;;;;;;8.00;5.33;;;;;18.26;50.26;102021.41;5035844;28;45711;-67
2022/05/27 05:10:28;;;;;;;;;6.67;6.67;;;;;18.53;50.29;102061.81;5036565;28;45506;-68
2022/05/27 05:12:54;;;;;;;;;5.33;5.00;;;;;18.52;50.61;102066.25;5039191;28;46266;-67
2022/05/27 05:15:21;;;;;;;;;10.33;7.00;;;;;18.06;50.43;101995.09;5039006;28;45461;-68
2022/05/27 05:17:47;;;;;;;;;7.00;5.33;;;;;18.44;50.52;102065.44;5039273;28;45414;-69
2022/05/27 05:20:16;;;;;;;;;8.00;6.00;;;;;18.49;50.76;102068.94;5039270;28;45339;-70
2022/05/27 05:22:41;;;;;;;;;7.67;5.00;;;;;17.70;50.61;101937.91;5039134;28;45555;-69
2022/05/27 05:25:09;;;;;;;;;11.00;7.67;;;;;18.25;50.80;102032.00;5038883;28;45494;-68
2022/05/27 05:27:36;;;;;;;;;7.33;6.00;;;;;18.13;50.63;102011.81;5037858;28;45503;-68
2022/05/27 05:30:03;;;;;;;;;8.33;5.67;;;;;18.36;50.96;102049.59;5039142;28;45554;-69
2022/05/27 05:32:28;;;;;;;;;14.00;7.67;;;;;18.40;50.60;102063.72;5038677;28;45428;-69
2022/05/27 05:34:54;;;;;;;;;11.00;8.00;;;;;18.44;50.90;102066.31;5038551;28;45660;-70
2022/05/27 05:37:20;;;;;;;;;8.00;7.00;;;;;18.43;50.98;102069.84;5038904;28;45446;-70
2022/05/27 05:39:46;;;;;;;;;6.33;6.33;;;;;18.47;50.95;102075.16;5039311;28;45404;-68
2022/05/27 05:42:12;;;;;;;;;8.00;6.00;;;;;17.98;51.38;101986.31;5038401;28;46684;-69
2022/05/27 05:44:38;;;;;;;;;7.67;7.67;;;;;18.50;51.29;102080.41;5037854;28;45601;-68
2022/05/27 05:47:04;;;;;;;;;10.33;8.00;;;;;18.44;51.09;102071.63;5038184;28;45474;-69
2022/05/27 05:49:31;;;;;;;;;10.00;8.33;;;;;18.42;51.27;102067.22;5042875;28;45308;-69
2022/05/27 05:51:59;;;;;;;;;9.00;6.67;;;;;18.44;50.97;102073.41;5044415;28;46442;-70
2022/05/27 05:54:27;;;;;;;;;6.00;5.67;;;;;18.00;51.20;102005.72;5037913;28;46482;-71
2022/05/27 05:56:53;;;;;;;;;6.67;6.67;;;;;18.31;51.49;102047.88;5049554;28;45600;-69
2022/05/27 05:59:20;;;;;;;;;8.00;8.00;;;;;18.34;51.46;102064.66;5040283;28;45621;-68
2022/05/27 06:01:46;;;;;;;;;9.67;8.00;;;;;18.05;51.58;102011.00;5058030;28;46370;-69
2022/05/27 06:04:13;;;;;;;;;12.33;8.67;;;;;18.21;51.74;102042.66;5030802;28;45597;-68
2022/05/27 06:06:40;;;;;;;;;11.00;11.00;;;;;18.43;51.93;102083.13;5057212;28;45496;-69
2022/05/27 06:09:07;;;;;;;;;11.00;10.00;;;;;18.42;51.37;102078.72;5039340;28;45521;-69
2022/05/27 06:11:36;;;;;;;;;13.00;11.67;;;;;18.28;51.75;102048.78;5057323;28;45591;-68
2022/05/27 06:14:06;;;;;;;;;12.67;11.33;;;;;18.42;51.64;102069.88;5057662;28;45394;-69
2022/05/27 06:16:33;;;;;;;;;10.00;10.00;;;;;18.21;51.64;102031.19;5057544;28;45535;-69
2022/05/27 06:18:59;;;;;;;;;9.33;9.33;;;;;18.10;51.65;102025.97;5032109;28;45589;-68
2022/05/27 06:21:26;;;;;;;;;16.67;13.33;;;;;18.43;51.85;102082.25;5054753;28;45643;-69
2022/05/27 06:23:51;;;;;;;;;16.67;9.67;;;;;18.29;51.87;102049.66;5058057;28;45322;-68
2022/05/27 06:26:17;;;;;;;;;12.33;9.00;;;;;18.49;51.64;102083.97;5058404;28;45494;-68
2022/05/27 06:34:23;;;;;;;;;9.00;6.00;;;;;18.54;51.95;102087.47;5051501;28;45397;-69
2022/05/27 06:36:53;;;;;;;;;5.00;5.00;;;;;18.42;52.14;102067.22;5036965;28;45425;-69
2022/05/27 06:39:19;;;;;;;;;5.00;4.67;;;;;18.29;51.91;102049.66;5057054;28;45515;-69
2022/05/27 06:41:46;;;;;;;;;4.00;4.00;;;;;18.53;51.98;102097.19;5057181;28;45561;-69
2022/05/27 06:44:12;;;;;;;;;4.67;3.33;;;;;18.42;52.20;102072.53;5057283;28;45630;-69
2022/05/27 06:46:38;;;;;;;;;4.00;4.00;;;;;18.42;52.44;102077.84;5039104;28;45446;-70
2022/05/27 06:49:07;;;;;;;;;2.00;2.00;;;;;18.34;52.47;102059.34;5056969;28;45426;-69
2022/05/27 06:51:38;;;;;;;;;4.67;3.33;;;;;18.51;52.26;102095.44;5028535;28;46332;-70
2022/05/27 06:54:05;;;;;;;;;2.33;2.33;;;;;18.42;52.42;102083.16;5054323;28;45414;-68
2022/05/27 06:56:40;;;;;;;;;3.67;3.33;;;;;18.37;52.30;102082.31;5038465;28;45516;-70
2022/05/27 06:59:16;;;;;;;;;2.33;2.33;;;;;18.33;52.71;102084.09;5053752;28;45393;-68
2022/05/27 07:01:42;;;;;;;;;6.00;4.00;;;;;18.16;52.61;102049.78;5055638;28;45569;-69
2022/05/27 07:04:09;;;;;;;;;4.67;4.00;;;;;18.21;52.60;102063.00;5056357;28;45395;-69
2022/05/27 07:06:43;;;;;;;;;3.67;3.67;;;;;18.35;52.48;102079.66;5046920;28;45227;-69
2022/05/27 07:09:15;;;;;;;;;6.00;4.00;;;;;18.41;52.72;102091.97;5053900;28;45445;-69
2022/05/27 07:11:43;;;;;;;;;4.00;4.00;;;;;18.45;52.75;102091.06;5056473;28;45562;-68
2022/05/27 07:14:09;;;;;;;;;4.00;3.33;;;;;18.35;52.81;102074.38;5038809;28;45685;-65
2022/05/27 07:16:36;;;;;;;;;3.67;3.67;;;;;18.21;52.75;102057.69;5056634;28;45340;-68
2022/05/27 07:19:02;;;;;;;;;4.00;4.00;;;;;18.30;52.41;102072.66;5056288;28;45628;-69
2022/05/27 07:21:29;;;;;;;;;7.00;5.33;;;;;18.18;52.65;102045.34;5054448;28;46431;-69
2022/05/27 07:23:56;;;;;;;;;5.00;5.00;;;;;18.52;52.73;102098.06;5051329;28;46595;-70
2022/05/27 07:26:24;;;;;;;;;6.00;5.00;;;;;18.47;52.60;102077.81;5049956;28;45548;-66
2022/05/27 07:28:50;;;;;;;;;6.00;6.00;;;;;18.48;52.53;102077.78;5056891;28;45313;-68
2022/05/27 07:31:20;;;;;;;;;11.67;7.00;;;;;18.52;52.59;102089.25;5056870;28;45969;-67
2022/05/27 07:33:46;;;;;;;;;6.00;6.00;;;;;18.63;52.47;102098.00;5056540;28;45414;-69
2022/05/27 07:36:15;;;;;;;;;8.00;7.33;;;;;18.60;52.46;102085.63;5057469;28;45708;-66
2022/05/27 07:38:41;;;;;;;;;9.67;8.00;;;;;18.61;52.70;102082.06;5057405;28;45295;-68
2022/05/27 07:41:07;;;;;;;;;8.33;8.00;;;;;18.57;52.58;102071.50;5057265;28;45856;-67
2022/05/27 07:43:33;;;;;;;;;9.00;6.00;;;;;18.70;52.80;102099.69;5056657;28;45492;-67
2022/05/27 07:46:00;;;;;;;;;9.67;9.67;;;;;18.56;52.59;102065.31;5057184;28;45329;-68
2022/05/27 07:48:25;;;;;;;;;12.33;9.33;;;;;18.67;52.33;102072.28;5057088;28;45552;-67
2022/05/27 07:50:52;;;;;;;;;9.00;6.67;;;;;18.67;52.60;102072.28;5056787;28;45451;-67
2022/05/27 07:53:19;;;;;;;;;8.67;7.00;;;;;18.81;52.65;102092.50;5050902;28;46273;-70
2022/05/27 07:55:45;;;;;;;;;8.33;8.33;;;;;18.87;52.40;102090.72;5050190;28;45450;-69
2022/05/27 07:58:11;;;;;;;;;9.00;8.67;;;;;18.90;52.40;102085.34;5037103;28;45504;-68
2022/05/27 08:00:40;;;;;;;;;7.00;7.00;;;;;18.93;52.34;102083.53;5036463;28;45595;-68
2022/05/27 08:03:06;;;;;;;;;9.67;7.67;;;;;18.89;52.33;102084.47;5051616;28;45938;-70
2022/05/27 08:05:33;;;;;;;;;6.00;6.00;;;;;18.94;52.47;102095.94;5056202;28;45603;-69
2022/05/27 08:08:00;;;;;;;;;10.33;7.00;;;;;18.88;52.54;102073.88;5056686;28;45470;-69
2022/05/27 08:10:31;;;;;;;;;9.33;6.00;;;;;18.91;52.11;102077.38;5056442;28;45647;-68
2022/05/27 08:13:00;;;;;;;;;10.67;9.00;;;;;18.93;52.18;102075.56;5056502;28;45710;-69
2022/05/27 08:15:27;;;;;;;;;6.33;5.00;;;;;18.81;51.98;102055.34;5056051;28;45464;-68
2022/05/27 08:17:52;;;;;;;;;6.67;6.67;;;;;18.57;52.21;102029.06;5057230;28;45518;-69
2022/05/27 08:20:22;;;;;;;;;9.00;7.00;;;;;18.96;52.24;102090.56;5055453;28;45445;-70
2022/05/27 08:22:49;;;;;;;;;6.00;6.00;;;;;18.95;52.25;102100.31;5053931;28;45358;-70
2022/05/27 08:25:16;;;;;;;;;6.67;6.67;;;;;18.84;52.32;102081.88;5056619;28;46238;-70
2022/05/27 08:27:42;;;;;;;;;5.33;5.33;;;;;18.98;52.29;102097.66;5056634;28;45303;-69
2022/05/27 08:30:12;;;;;;;;;5.67;5.00;;;;;18.77;52.24;102056.28;5056134;28;45520;-70
2022/05/27 08:32:38;;;;;;;;;5.33;5.33;;;;;18.99;52.35;102090.56;5056094;28;45460;-69
2022/05/27 08:38:01;;;;;;;;;5.67;4.67;;;;;18.96;53.05;102069.34;5056574;28;45580;-69
2022/05/27 08:40:38;;;;;;;;;7.00;7.00;;;;;19.14;52.49;102089.50;5056543;28;45458;-68
2022/05/27 08:43:14;;;;;;;;;3.00;3.00;;;;;19.17;52.61;102100.06;5056243;28;45592;-71
2022/05/27 08:46:13;;;;;;;;;6.00;5.33;;;;;19.23;52.27;102089.38;5058523;28;45437;-70
2022/05/27 08:48:46;;;;;;;;;7.00;4.00;;;;;19.22;52.22;102082.31;5058364;28;45491;-71
2022/05/27 08:51:18;;;;;;;;;6.33;5.00;;;;;19.22;52.27;102079.66;5044405;28;47851;-70
2022/05/27 08:53:51;;;;;;;;;6.00;5.67;;;;;19.27;52.42;102083.16;5058788;28;45505;-71
2022/05/27 08:59:28;;;;;;;;;4.33;4.33;;;;;18.69;52.60;101998.84;5038030;28;45329;-71
2022/05/27 09:02:26;;;;;;;;;10.67;6.00;;;;;19.25;52.71;102095.56;5058964;28;45448;-70
2022/05/27 09:04:54;;;;;;;;;5.00;5.00;;;;;19.25;52.88;102096.44;5059204;28;45450;-71
2022/05/27 09:07:39;;;;;;;;;5.33;4.67;;;;;19.25;52.66;102096.44;5058091;28;45553;-71
2022/05/27 09:10:12;;;;;;;;;5.00;4.00;;;;;19.13;52.75;102078.00;5059289;28;45394;-71
2022/05/27 09:12:44;;;;;;;;;4.00;4.00;;;;;19.18;52.96;102091.22;5059278;28;45378;-71
2022/05/27 09:15:28;;;;;;;;;5.67;4.00;;;;;19.09;53.27;102086.03;5059508;28;45366;-70
2022/05/27 09:17:59;;;;;;;;;6.00;6.00;;;;;19.22;53.19;102108.84;5040752;28;45485;-71
2022/05/27 09:20:42;;;;;;;;;4.00;4.00;;;;;18.84;53.34;102044.72;5059829;28;45398;-72
2022/05/27 09:23:31;;;;;;;;;4.00;4.00;;;;;18.93;53.35;102050.78;5059314;28;46125;-71
2022/05/27 09:26:24;;;;;;;;;4.00;4.00;;;;;18.57;53.33;101999.88;5059278;28;45628;-71
2022/05/27 09:29:18;;;;;;;;;3.00;3.00;;;;;19.20;53.31;102100.94;5040377;28;45538;-71
2022/05/27 09:31:53;;;;;;;;;4.00;4.00;;;;;18.99;53.54;102070.19;5059223;28;45604;-70
2022/05/27 09:34:23;;;;;;;;;7.00;4.67;;;;;18.84;53.84;102039.41;5059108;28;45564;-69
2022/05/27 09:36:53;;;;;;;;;4.67;4.67;;;;;19.11;53.81;102077.13;5058999;28;45357;-68
2022/05/27 09:39:22;;;;;;;;;4.00;4.00;;;;;19.26;53.86;102103.50;5020639;28;45461;-70
2022/05/27 09:42:04;;;;;;;;;3.00;3.00;;;;;18.84;53.99;102035.88;5042624;28;45529;-72
2022/05/27 09:44:36;;;;;;;;;4.00;4.00;;;;;19.27;54.01;102099.09;5057932;28;45552;-70
2022/05/27 09:47:03;;;;;;;;;4.00;4.00;;;;;19.31;54.05;102097.25;5057927;28;45329;-70
2022/05/27 09:49:31;;;;;;;;;2.00;2.00;;;;;19.34;53.78;102102.50;5058012;28;45411;-70
2022/05/27 09:51:58;;;;;;;;;4.67;4.00;;;;;19.27;53.30;102075.19;5058238;28;45375;-72
2022/05/27 09:54:46;;;;;;;;;2.00;2.00;;;;;19.45;53.76;102100.59;5053593;28;46943;-72
2022/05/27 09:57:13;;;;;;;;;4.67;3.33;;;;;19.51;53.84;102102.31;5055903;28;45461;-72
2022/05/27 09:59:52;;;;;;;;;4.33;4.33;;;;;19.55;53.88;102101.34;5057133;28;45472;-71
2022/05/27 10:02:21;;;;;;;;;4.67;3.00;;;;;19.60;53.69;102094.19;5038331;28;45695;-70
2022/05/27 10:05:05;;;;;;;;;3.33;3.33;;;;;19.66;53.67;102102.09;5057599;28;45559;-70
2022/05/27 10:07:37;;;;;;;;;6.00;5.00;;;;;19.74;53.79;102096.69;5057759;28;45524;-69
2022/05/27 10:10:34;;;;;;;;;3.33;3.33;;;;;19.59;53.79;102066.75;5057193;28;45457;-70
2022/05/27 10:13:22;;;;;;;;;7.00;4.00;;;;;19.87;53.94;102107.13;5058159;28;46599;-70
2022/05/27 10:15:48;;;;;;;;;4.00;4.00;;;;;19.94;53.85;102094.63;5057405;28;45566;-70
2022/05/27 10:18:20;;;;;;;;;7.33;5.67;;;;;19.99;53.78;102089.25;5057741;28;45501;-71
2022/05/27 10:21:09;;;;;;;;;3.33;3.33;;;;;19.87;53.62;102053.97;5055105;28;45294;-72
2022/05/27 10:23:40;;;;;;;;;4.33;4.00;;;;;19.91;53.64;102039.72;5055635;28;45341;-70
2022/05/27 10:26:29;;;;;;;;;4.67;4.67;;;;;20.20;53.67;102075.59;5057098;28;46637;-70
2022/05/27 10:29:19;;;;;;;;;3.33;3.33;;;;;20.32;53.45;102063.88;5057690;28;45454;-69
2022/05/27 10:31:54;;;;;;;;;3.67;3.67;;;;;20.44;52.97;102062.78;5057285;28;45556;-70
2022/05/27 10:34:38;;;;;;;;;6.00;4.00;;;;;20.63;52.52;102063.34;5057599;28;45410;-69
2022/05/27 10:37:14;;;;;;;;;5.67;3.00;;;;;20.77;52.45;102060.44;5039255;28;47646;-71
2022/05/27 10:40:19;;;;;;;;;4.67;4.33;;;;;20.47;51.88;101996.19;5057461;28;45593;-72
2022/05/27 10:43:14;;;;;;;;;3.00;3.00;;;;;21.05;51.52;102060.75;5039470;28;45391;-72
2022/05/27 10:45:53;;;;;;;;;5.33;3.00;;;;;21.12;51.43;102073.91;5058234;28;45472;-70
2022/05/27 10:48:46;;;;;;;;;4.00;3.00;;;;;21.17;51.24;102069.34;5056709;28;45676;-71
2022/05/27 10:51:42;;;;;;;;;3.00;3.00;;;;;21.19;51.10;102064.00;5057255;28;45482;-69
2022/05/27 10:54:22;;;;;;;;;7.00;7.00;;;;;21.15;50.98;102063.19;5057639;28;46104;-71
